地図

経路データ

SID SEASON NUMBER BASIN SUBBASIN NAME ISO_TIME NATURE LAT LON WMO_WIND WMO_PRES WMO_AGENCY TRACK_TYPE DIST2LAND LANDFALL IFLAG USA_AGENCY USA_ATCF_ID USA_LAT USA_LON USA_RECORD USA_STATUS USA_WIND USA_PRES USA_SSHS USA_R34_NE USA_R34_SE USA_R34_SW USA_R34_NW USA_R50_NE USA_R50_SE USA_R50_SW USA_R50_NW USA_R64_NE USA_R64_SE USA_R64_SW USA_R64_NW USA_POCI USA_ROCI USA_RMW USA_EYE TOKYO_LAT TOKYO_LON TOKYO_GRADE TOKYO_WIND TOKYO_PRES TOKYO_R50_DIR TOKYO_R50_LONG TOKYO_R50_SHORT TOKYO_R30_DIR TOKYO_R30_LONG TOKYO_R30_SHORT TOKYO_LAND CMA_LAT CMA_LON CMA_CAT CMA_WIND CMA_PRES HKO_LAT HKO_LON HKO_CAT HKO_WIND HKO_PRES NEWDELHI_LAT NEWDELHI_LON NEWDELHI_GRADE NEWDELHI_WIND NEWDELHI_PRES NEWDELHI_CI NEWDELHI_DP NEWDELHI_POCI REUNION_LAT REUNION_LON REUNION_TYPE REUNION_WIND REUNION_PRES REUNION_TNUM REUNION_CI REUNION_RMW REUNION_R34_NE REUNION_R34_SE REUNION_R34_SW REUNION_R34_NW REUNION_R50_NE REUNION_R50_SE REUNION_R50_SW REUNION_R50_NW REUNION_R64_NE REUNION_R64_SE REUNION_R64_SW REUNION_R64_NW BOM_LAT BOM_LON BOM_TYPE BOM_WIND BOM_PRES BOM_TNUM BOM_CI BOM_RMW BOM_R34_NE BOM_R34_SE BOM_R34_SW BOM_R34_NW BOM_R50_NE BOM_R50_SE BOM_R50_SW BOM_R50_NW BOM_R64_NE BOM_R64_SE BOM_R64_SW BOM_R64_NW BOM_ROCI BOM_POCI BOM_EYE BOM_POS_METHOD BOM_PRES_METHOD NADI_LAT NADI_LON NADI_CAT NADI_WIND NADI_PRES WELLINGTON_LAT WELLINGTON_LON WELLINGTON_WIND WELLINGTON_PRES DS824_LAT DS824_LON DS824_STAGE DS824_WIND DS824_PRES TD9636_LAT TD9636_LON TD9636_STAGE TD9636_WIND TD9636_PRES TD9635_LAT TD9635_LON TD9635_WIND TD9635_PRES TD9635_ROCI NEUMANN_LAT NEUMANN_LON NEUMANN_CLASS NEUMANN_WIND NEUMANN_PRES MLC_LAT MLC_LON MLC_CLASS MLC_WIND MLC_PRES USA_GUST BOM_GUST BOM_GUST_PER REUNION_GUST REUNION_GUST_PER USA_SEAHGT USA_SEARAD_NE USA_SEARAD_SE USA_SEARAD_SW USA_SEARAD_NW STORM_SPEED STORM_DIR
1969156N11263 1969 32 EP MM NOT_NAMED 1969-06-04 12:00:00 NR 11.3000 -96.9000 main 482 482 __________O___ -1 11.3000 -96.9000 1 1 0
1969156N11263 1969 32 EP MM NOT_NAMED 1969-06-04 15:00:00 NR 11.2811 -96.8751 main 482 482 __________P___ -1 11.2811 -96.8751 1 0 140
1969156N11263 1969 32 EP MM NOT_NAMED 1969-06-04 18:00:00 NR 11.2698 -96.8801 main 482 482 __________P___ -1 11.2698 -96.8801 1 1 264
1969156N11263 1969 32 EP MM NOT_NAMED 1969-06-04 21:00:00 NR 11.2736 -96.9451 main 482 482 __________P___ -1 11.2736 -96.9451 1 2 278
1969156N11263 1969 32 EP MM NOT_NAMED 1969-06-05 00:00:00 NR 11.3000 -97.1000 main 484 484 O_________O___ jtwc_ep EP011969 11.3000 -97.1000 26 -1 11.3000 -97.1000 1 4 280
1969156N11263 1969 32 EP MM NOT_NAMED 1969-06-05 03:00:00 NR 11.3483 -97.3925 main 489 478 P_________P___ EP011969 11.3376 -97.4500 26 -1 11.3536 -97.3637 1 6 280
1969156N11263 1969 32 EP MM NOT_NAMED 1969-06-05 06:00:00 NR 11.4159 -97.7485 main 485 480 O_________P___ jtwc_ep EP011969 11.4000 -97.8000 26 -1 11.4278 -97.7099 1 7 282
1969156N11263 1969 32 EP MM NOT_NAMED 1969-06-05 09:00:00 NR 11.5065 -98.1256 main 486 484 P_________P___ EP011969 11.5000 -98.1500 26 -1 11.5130 -98.1012 1 8 284
1969156N11263 1969 32 EP MM NOT_NAMED 1969-06-05 12:00:00 NR 11.6000 -98.5000 main 492 492 O_________O___ jtwc_ep EP011969 11.6000 -98.5000 26 -1 11.6000 -98.5000 1 7 282
1969156N11263 1969 32 EP MM NOT_NAMED 1969-06-05 15:00:00 NR 11.6604 -98.8562 main 495 495 P_________P___ EP011969 11.6500 -98.8501 26 -1 11.6709 -98.8622 1 7 280
1969156N11263 1969 32 EP MM NOT_NAMED 1969-06-05 18:00:00 NR 11.7212 -99.2113 main 504 497 O_________P___ jtwc_ep EP011969 11.7000 -99.2000 26 -1 11.7425 -99.2226 1 7 282
1969156N11263 1969 32 EP MM NOT_NAMED 1969-06-05 21:00:00 NR 11.8051 -99.5646 main 508 502 P_________P___ EP011969 11.7925 -99.5575 26 -1 11.8178 -99.5716 1 7 285
1969156N11263 1969 32 EP MM NOT_NAMED 1969-06-06 00:00:00 NR 11.9000 -99.9000 main 511 507 O_________O___ jtwc_ep EP011969 11.9000 -99.9000 26 -1 11.9000 -99.9000 1 7 287
1969156N11263 1969 32 EP MM NOT_NAMED 1969-06-06 03:00:00 NR 11.9943 -100.206 main 511 508 P_________P___ EP011969 12.0000 -100.215 26 -1 11.9886 -100.197 1 6 289
1969156N11263 1969 32 EP MM NOT_NAMED 1969-06-06 06:00:00 NR 12.0924 -100.486 main 512 507 O_________P___ jtwc_ep EP011969 12.1000 -100.500 26 -1 12.0847 -100.473 1 6 290
1969156N11263 1969 32 EP MM NOT_NAMED 1969-06-06 09:00:00 NR 12.1905 -100.747 main 511 509 P_________P___ EP011969 12.1925 -100.758 26 -1 12.1886 -100.737 1 5 292
1969156N11263 1969 32 EP MM NOT_NAMED 1969-06-06 12:00:00 NR 12.3000 -101.000 main 512 504 O_________O___ jtwc_ep EP011969 12.3000 -101.000 26 -1 12.3000 -101.000 1 6 296
1969156N11263 1969 32 EP MM NOT_NAMED 1969-06-06 15:00:00 NR 12.4380 -101.269 main 511 498 P_________P___ EP011969 12.4500 -101.243 26 -1 12.4260 -101.295 1 6 298
1969156N11263 1969 32 EP MM NOT_NAMED 1969-06-06 18:00:00 NR 12.5788 -101.544 main 498 496 O_________P___ jtwc_ep EP011969 12.6000 -101.500 26 -1 12.5576 -101.587 1 6 295
1969156N11263 1969 32 EP MM NOT_NAMED 1969-06-06 21:00:00 NR 12.7002 -101.838 main 501 501 P_________P___ EP011969 12.7151 -101.815 26 -1 12.6854 -101.861 1 6 292
1969156N11263 1969 32 EP MM NOT_NAMED 1969-06-07 00:00:00 NR 12.8000 -102.100 main 507 503 O_________O___ jtwc_ep EP011969 12.8000 -102.100 26 -1 12.8000 -102.100 1 5 291
1969156N11263 1969 32 EP MM NOT_NAMED 1969-06-07 03:00:00 NR 12.8675 -102.275 main 507 507 P_________P___ EP011969 12.8499 -102.273 26 -1 12.8851 -102.278 1 3 293
1969156N11263 1969 32 EP MM NOT_NAMED 1969-06-07 06:00:00 NR 12.9286 -102.411 main 511 504 O_________P___ jtwc_ep EP011969 12.9000 -102.400 26 -1 12.9572 -102.423 1 3 298
1969156N11263 1969 32 EP MM NOT_NAMED 1969-06-07 09:00:00 NR 13.0091 -102.549 main 504 496 P_________P___ EP011969 12.9925 -102.543 26 -1 13.0258 -102.556 1 3 301
1969156N11263 1969 32 EP MM NOT_NAMED 1969-06-07 12:00:00 NR 13.1000 -102.700 main 500 493 O_________O___ jtwc_ep EP011969 13.1000 -102.700 26 -1 13.1000 -102.700 1 4 299
1969156N11263 1969 32 EP MM NOT_NAMED 1969-06-07 15:00:00 NR 13.1964 -102.891 main 497 491 P_________P___ EP011969 13.2000 -102.893 26 -1 13.1928 -102.890 1 4 297
1969156N11263 1969 32 EP MM NOT_NAMED 1969-06-07 18:00:00 NR 13.2963 -103.096 main 496 491 O_________P___ jtwc_ep EP011969 13.3000 -103.100 26 -1 13.2925 -103.092 1 4 297
1969156N11263 1969 32 EP MM NOT_NAMED 1969-06-07 21:00:00 NR 13.3980 -103.300 main 496 491 P_________P___ EP011969 13.4000 -103.300 26 -1 13.3960 -103.299 1 4 297
1969156N11263 1969 32 EP MM NOT_NAMED 1969-06-08 00:00:00 NR 13.5000 -103.500 main 497 493 O_________O___ jtwc_ep EP011969 13.5000 -103.500 26 -1 13.5000 -103.500 1 4 298
1969156N11263 1969 32 EP MM NOT_NAMED 1969-06-08 03:00:00 NR 13.6011 -103.698 main 499 496 P_________P___ EP011969 13.6000 -103.708 26 -1 13.6022 -103.688 1 4 298
1969156N11263 1969 32 EP MM NOT_NAMED 1969-06-08 06:00:00 NR 13.7013 -103.882 main 500 493 O_________P___ jtwc_ep EP011969 13.7000 -103.900 26 -1 13.7025 -103.865 1 4 300
1969156N11263 1969 32 EP MM NOT_NAMED 1969-06-08 09:00:00 NR 13.8008 -104.047 main 493 486 P_________P___ EP011969 13.8000 -104.060 26 -1 13.8016 -104.034 1 4 303
1969156N11263 1969 32 EP MM NOT_NAMED 1969-06-08 12:00:00 NR 13.9000 -104.200 main 489 O_________O___ jtwc_ep EP011969 13.9000 -104.200 26 -1 13.9000 -104.200 1 4 304

IBTrACS Databaseについて

本データベースは、米国NOAAが公開する1842年以降の世界の熱帯低気圧のベストトラックデータアーカイブInternational Best Track Archive for Climate Stewardship (IBTrACS)を、ウェブで閲覧しやすい形式に変換したものです。

最終更新日:2021-12-06